Time;durP1;ratioP1;P1;durP2;ratioP2;P2;SDS_P1;SDS_P2;PMS_P1;PMS_P2;Temp;Humidity;BMP_temperature;BMP_pressure;BME280_temperature;BME280_humidity;BME280_pressure;Samples;Min_cycle;Max_cycle;Signal;HPM_P1;HPM_P2
2022/04/15 00:02:01;;;;;;;9.27;7.13;;;;;;;15.17;60.68;101200.06;4034819;29;20051;-55
2022/04/15 00:04:05;;;;;;;9.77;6.43;;;;;;;15.17;61.72;101206.22;4033784;29;20049;-55
2022/04/15 00:06:08;;;;;;;13.32;7.00;;;;;;;15.21;60.75;101201.00;4048090;29;20048;-56
2022/04/15 00:08:13;;;;;;;9.55;5.88;;;;;;;15.16;61.92;101207.06;4031264;29;20052;-55
2022/04/15 00:10:16;;;;;;;10.88;5.88;;;;;;;15.12;61.66;101205.28;4038969;29;20094;-56
2022/04/15 00:12:28;;;;;;;9.65;6.60;;;;;;;15.10;62.08;101208.75;4034693;29;20082;-56
2022/04/15 00:14:31;;;;;;;10.27;5.90;;;;;;;15.02;61.96;101208.69;4031814;29;20097;-55
2022/04/15 00:16:34;;;;;;;8.20;5.47;;;;;;;15.00;62.53;101205.22;4029999;29;20069;-54
2022/04/15 00:18:37;;;;;;;12.00;6.28;;;;;;;14.99;62.14;101203.44;4033073;29;20037;-55
2022/04/15 00:20:40;;;;;;;12.93;7.00;;;;;;;14.96;62.60;101204.28;4030655;29;20049;-55
2022/04/15 00:22:43;;;;;;;12.70;6.40;;;;;;;14.93;61.95;101213.88;4036602;29;20093;-55
2022/04/15 00:24:46;;;;;;;10.55;7.97;;;;;;;14.92;61.66;101213.00;4037319;29;20051;-55
2022/04/15 00:26:49;;;;;;;14.98;6.78;;;;;;;14.69;62.73;101201.44;4035933;29;20047;-54
2022/04/15 00:28:54;;;;;;;9.20;6.43;;;;;;;14.69;62.59;101212.81;4037774;29;20044;-55
2022/04/15 00:30:57;;;;;;;11.38;8.32;;;;;;;14.70;62.56;101203.19;4051134;29;20044;-55
2022/04/15 00:33:00;;;;;;;13.20;8.68;;;;;;;14.75;61.76;101209.38;4042076;29;20112;-55
2022/04/15 00:35:04;;;;;;;10.75;6.47;;;;;;;14.75;61.54;101206.75;4034695;29;20396;-55
2022/04/15 00:37:07;;;;;;;10.07;6.60;;;;;;;14.80;61.92;101205.91;4037815;29;20050;-56
2022/04/15 00:39:10;;;;;;;13.13;8.35;;;;;;;14.80;62.16;101205.03;4036063;29;20470;-54
2022/04/15 00:41:15;;;;;;;11.35;8.15;;;;;;;14.79;62.37;101206.78;4031968;29;20056;-56
2022/04/15 00:43:18;;;;;;;11.98;7.53;;;;;;;14.78;61.57;101202.41;4036795;29;20101;-55
2022/04/15 00:45:23;;;;;;;13.65;8.73;;;;;;;14.75;61.82;101209.38;4034520;29;20049;-56
2022/04/15 00:47:31;;;;;;;;;;;;;;;14.51;62.49;101210.84;4040820;29;20048;-55
2022/04/15 00:49:35;;;;;;;12.63;8.10;;;;;;;14.57;61.98;101208.28;4032986;29;20293;-56
2022/04/15 00:51:40;;;;;;;11.57;9.20;;;;;;;14.62;61.80;101206.63;4036809;29;20037;-55
2022/04/15 00:53:45;;;;;;;10.98;8.30;;;;;;;14.60;62.38;101215.28;4036282;29;20131;-55
2022/04/15 00:55:53;;;;;;;11.15;8.38;;;;;;;14.57;62.38;101210.91;4037608;29;20055;-55
2022/04/15 00:57:59;;;;;;;10.52;8.25;;;;;;;14.51;62.17;101204.72;4020610;29;20041;-55
2022/04/15 01:00:05;;;;;;;13.32;9.15;;;;;;;14.46;62.15;101210.78;4039751;29;20045;-56
2022/04/15 01:02:09;;;;;;;11.88;8.52;;;;;;;14.43;62.93;101215.13;4034864;29;20277;-56
2022/04/15 01:04:16;;;;;;;13.68;9.40;;;;;;;14.38;62.72;101214.19;4032391;29;20124;-56
2022/04/15 01:06:20;;;;;;;11.82;9.73;;;;;;;14.30;62.72;101209.75;4037919;29;20042;-56
2022/04/15 01:08:26;;;;;;;12.02;10.05;;;;;;;14.23;63.04;101207.06;4041443;29;20054;-57
2022/04/15 01:10:29;;;;;;;15.05;10.15;;;;;;;14.16;63.36;101203.47;4036614;29;20080;-56
2022/04/15 01:12:34;;;;;;;12.65;8.98;;;;;;;14.14;63.01;101213.91;4030549;29;20064;-56
2022/04/15 01:14:39;;;;;;;11.48;9.52;;;;;;;14.09;63.70;101218.25;4033354;29;20105;-56
2022/04/15 01:16:42;;;;;;;11.02;9.55;;;;;;;14.10;63.74;101212.13;4037635;29;20115;-56
2022/04/15 01:18:46;;;;;;;11.25;9.23;;;;;;;14.10;64.15;101213.88;4036653;29;20089;-56
2022/04/15 01:20:51;;;;;;;12.93;8.55;;;;;;;14.09;64.17;101212.13;4052366;29;20044;-56
2022/04/15 01:22:59;;;;;;;12.68;9.63;;;;;;;14.11;63.99;101215.63;4036119;29;20049;-56
2022/04/15 01:25:03;;;;;;;11.82;8.40;;;;;;;14.09;64.26;101206.88;4037571;29;20048;-56
2022/04/15 01:27:07;;;;;;;12.10;8.63;;;;;;;14.07;65.06;101216.47;4030046;29;20049;-56
2022/04/15 01:29:10;;;;;;;14.00;9.52;;;;;;;14.01;65.25;101221.63;4038303;29;20082;-56
2022/04/15 01:31:13;;;;;;;12.07;10.32;;;;;;;13.95;65.06;101231.13;4034095;29;20097;-56
2022/04/15 01:33:16;;;;;;;13.40;9.57;;;;;;;13.93;64.63;101226.72;4032079;29;20044;-56
2022/04/15 01:35:24;;;;;;;12.43;10.18;;;;;;;13.85;64.91;101226.63;4042006;29;20144;-55
2022/04/15 01:37:31;;;;;;;16.90;11.65;;;;;;;13.84;64.89;101232.72;4030962;29;20037;-55
2022/04/15 01:39:36;;;;;;;15.60;11.40;;;;;;;13.83;64.67;101232.69;4033564;29;20128;-56
2022/04/15 01:41:39;;;;;;;15.13;11.82;;;;;;;13.81;64.78;101232.69;4035110;29;20120;-55
2022/04/15 01:43:42;;;;;;;16.13;12.52;;;;;;;13.81;64.45;101231.81;4021101;29;20056;-56
2022/04/15 01:45:45;;;;;;;15.20;12.93;;;;;;;13.79;63.97;101223.94;4040731;29;20060;-56
2022/04/15 01:47:49;;;;;;;16.35;13.57;;;;;;;13.76;64.16;101234.38;4034009;29;20036;-55
2022/04/15 01:49:52;;;;;;;16.33;13.25;;;;;;;13.74;64.01;101236.97;4036143;29;20684;-56
2022/04/15 01:51:55;;;;;;;16.42;12.10;;;;;;;13.73;64.33;101229.09;4025294;29;20046;-56
2022/04/15 01:53:58;;;;;;;16.98;13.00;;;;;;;13.75;63.89;101230.00;4033167;29;20042;-55
2022/04/15 01:56:05;;;;;;;18.85;12.98;;;;;;;13.74;63.84;101226.50;4040576;29;20049;-55
2022/04/15 01:58:08;;;;;;;19.25;12.60;;;;;;;13.76;63.76;101235.22;4040357;29;20124;-56
2022/04/15 02:00:12;;;;;;;16.00;10.95;;;;;;;13.71;64.13;101230.78;4026742;29;20052;-56
2022/04/15 02:02:15;;;;;;;14.20;11.38;;;;;;;13.68;63.83;101233.38;4037511;29;20046;-56
2022/04/15 02:04:18;;;;;;;15.88;13.07;;;;;;;13.69;64.02;101232.53;4034167;29;20408;-56
2022/04/15 02:06:21;;;;;;;19.58;13.55;;;;;;;13.69;63.99;101237.75;4040947;29;20033;-55
2022/04/15 02:08:24;;;;;;;15.50;13.07;;;;;;;13.69;64.30;101236.00;4028478;29;20045;-56
2022/04/15 02:10:27;;;;;;;14.38;12.75;;;;;;;13.70;64.22;101244.75;4035761;29;20049;-56
2022/04/15 02:12:31;;;;;;;17.25;13.25;;;;;;;13.69;63.91;101241.22;4043461;29;20045;-56
2022/04/15 02:14:34;;;;;;;18.50;14.88;;;;;;;13.67;64.19;101249.91;4043330;29;20037;-55
2022/04/15 02:16:37;;;;;;;19.73;15.40;;;;;;;13.66;63.68;101242.94;4041884;29;20040;-56
2022/04/15 02:18:40;;;;;;;18.42;14.35;;;;;;;13.65;63.61;101242.03;4036304;29;20044;-56
2022/04/15 02:20:42;;;;;;;18.95;15.82;;;;;;;13.67;63.63;101249.91;4042555;29;20069;-56
2022/04/15 02:22:45;;;;;;;19.05;15.23;;;;;;;13.69;63.97;101251.69;4042543;29;20044;-56
2022/04/15 02:24:48;;;;;;;19.25;16.20;;;;;;;13.70;63.72;101252.59;4033155;29;20053;-56
2022/04/15 02:26:51;;;;;;;18.25;14.98;;;;;;;13.71;63.88;101251.69;4034806;29;20129;-56
2022/04/15 02:28:55;;;;;;;16.90;14.00;;;;;;;13.69;63.99;101256.03;4035097;29;20052;-55
2022/04/15 02:30:59;;;;;;;22.00;14.98;;;;;;;13.62;64.21;101247.22;4042216;29;20044;-56
2022/04/15 02:33:02;;;;;;;23.58;16.35;;;;;;;13.58;64.24;101262.00;4025019;29;20078;-55
2022/04/15 02:35:08;;;;;;;18.40;15.60;;;;;;;13.56;64.34;101250.63;4037673;29;20037;-56
2022/04/15 02:37:11;;;;;;;20.23;16.13;;;;;;;13.55;64.66;101258.44;4053750;29;20041;-55
2022/04/15 02:39:14;;;;;;;20.20;17.67;;;;;;;13.49;64.45;101259.25;4029668;29;20049;-55
2022/04/15 02:41:17;;;;;;;20.15;17.20;;;;;;;13.48;64.54;101259.19;4036785;29;20044;-56
2022/04/15 02:43:20;;;;;;;21.13;17.85;;;;;;;13.41;64.71;101259.13;4039084;29;20060;-54
2022/04/15 02:45:25;;;;;;;16.60;14.48;;;;;;;13.34;65.00;101257.25;4043311;29;20041;-56
2022/04/15 02:47:29;;;;;;;18.98;16.83;;;;;;;13.31;64.98;101256.31;4043876;29;20416;-54
2022/04/15 02:49:32;;;;;;;;;;;;;;;13.09;65.55;101255.97;4040646;29;20046;-55
2022/04/15 02:51:36;;;;;;;19.75;15.90;;;;;;;13.18;65.69;101255.22;4036284;29;19929;-56
2022/04/15 02:53:39;;;;;;;21.85;16.15;;;;;;;13.26;65.17;101249.28;4030710;29;20127;-56
2022/04/15 02:55:42;;;;;;;20.60;16.85;;;;;;;13.30;65.19;101257.16;4037515;29;20049;-55
2022/04/15 02:57:44;;;;;;;17.60;13.80;;;;;;;13.31;65.14;101257.19;4044241;29;20044;-55
2022/04/15 02:59:47;;;;;;;19.85;17.40;;;;;;;13.32;65.19;101252.84;4034605;29;20145;-56
2022/04/15 03:01:51;;;;;;;20.08;15.50;;;;;;;13.34;65.00;101256.38;4042867;29;20059;-55
2022/04/15 03:03:54;;;;;;;20.63;17.40;;;;;;;13.27;65.27;101256.28;4043480;29;20041;-55
2022/04/15 03:05:57;;;;;;;18.40;14.88;;;;;;;13.26;65.28;101254.50;4041579;29;20043;-56
2022/04/15 03:08:00;;;;;;;20.80;17.20;;;;;;;13.24;65.17;101253.63;4042972;29;20093;-56
2022/04/15 03:10:04;;;;;;;20.10;16.67;;;;;;;13.22;65.15;101257.91;4032757;29;20499;-56
2022/04/15 03:12:09;;;;;;;18.75;15.82;;;;;;;13.21;65.30;101256.16;4041390;29;20500;-54
2022/04/15 03:14:12;;;;;;;16.92;14.02;;;;;;;13.23;65.40;101258.81;4038190;29;20061;-54
2022/04/15 03:16:15;;;;;;;19.65;16.02;;;;;;;13.23;65.25;101244.00;4041638;29;20065;-56
2022/04/15 03:18:19;;;;;;;18.40;15.43;;;;;;;13.27;65.06;101251.03;4042349;29;20061;-54
2022/04/15 03:20:22;;;;;;;17.40;15.00;;;;;;;13.19;64.74;101247.44;4035508;29;20057;-56
2022/04/15 03:22:25;;;;;;;19.95;16.42;;;;;;;13.23;64.58;101253.59;4039439;29;20540;-56
2022/04/15 03:24:28;;;;;;;18.40;15.82;;;;;;;13.27;64.37;101255.38;4040154;29;20516;-55
2022/04/15 03:26:31;;;;;;;18.60;15.88;;;;;;;13.28;64.49;101247.56;4036609;29;20049;-55
2022/04/15 03:28:34;;;;;;;19.33;16.98;;;;;;;13.31;64.58;101251.09;4030020;29;20032;-55
2022/04/15 03:30:37;;;;;;;19.88;17.58;;;;;;;13.30;64.32;101244.97;4040722;29;20033;-56
2022/04/15 03:32:46;;;;;;;20.60;17.40;;;;;;;13.28;64.34;101250.16;4045514;29;20041;-55
2022/04/15 03:34:52;;;;;;;23.27;17.80;;;;;;;13.25;64.33;101251.88;4030781;29;20542;-55
2022/04/15 03:36:55;;;;;;;27.58;19.83;;;;;;;13.18;64.36;101248.28;4039965;29;20294;-55
2022/04/15 03:38:58;;;;;;;22.40;20.02;;;;;;;13.21;64.22;101250.06;4034469;29;20502;-56
2022/04/15 03:41:01;;;;;;;25.90;21.65;;;;;;;13.25;64.16;101257.09;4044620;29;20491;-55
2022/04/15 03:43:04;;;;;;;26.92;21.50;;;;;;;13.30;63.73;101251.94;4041181;29;20136;-55
2022/04/15 03:45:08;;;;;;;25.80;19.73;;;;;;;13.35;63.54;101263.38;4041396;29;20109;-55
2022/04/15 03:47:11;;;;;;;26.00;20.17;;;;;;;13.39;63.38;101250.38;4035014;29;20504;-56
2022/04/15 03:49:14;;;;;;;28.00;20.90;;;;;;;13.40;63.50;101256.47;4037512;29;20480;-55
2022/04/15 03:51:19;;;;;;;25.55;20.65;;;;;;;13.44;62.93;101259.16;4033639;29;20445;-56
2022/04/15 03:53:21;;;;;;;31.10;20.65;;;;;;;13.43;63.14;101261.75;4034913;29;20041;-56
2022/04/15 03:55:25;;;;;;;24.55;21.63;;;;;;;13.43;62.74;101260.03;4036928;29;20053;-56
2022/04/15 03:57:28;;;;;;;24.25;21.58;;;;;;;13.47;62.72;101258.34;4040269;29;20055;-56
2022/04/15 03:59:31;;;;;;;25.35;21.30;;;;;;;13.50;62.70;101266.22;4037497;29;20044;-55
2022/04/15 04:01:34;;;;;;;27.13;21.67;;;;;;;13.50;62.54;101262.72;4038264;29;20100;-55
2022/04/15 04:03:37;;;;;;;26.45;21.40;;;;;;;13.48;62.61;101265.31;4037045;29;20041;-56
2022/04/15 04:05:39;;;;;;;24.23;20.88;;;;;;;13.48;62.71;101265.31;4038649;29;20041;-54
2022/04/15 04:07:44;;;;;;;24.30;21.65;;;;;;;13.46;63.05;101264.41;4043635;29;20522;-55
2022/04/15 04:09:47;;;;;;;26.13;21.08;;;;;;;13.45;62.34;101267.91;4044942;29;20059;-55
2022/04/15 04:11:50;;;;;;;22.67;20.25;;;;;;;13.44;62.47;101271.34;4043165;29;20036;-54
2022/04/15 04:13:53;;;;;;;23.95;19.55;;;;;;;13.42;62.98;101267.84;4053917;29;20522;-55
2022/04/15 04:15:56;;;;;;;24.70;19.65;;;;;;;13.40;62.95;101266.94;4032546;29;20537;-54
2022/04/15 04:17:59;;;;;;;24.35;21.15;;;;;;;13.37;63.06;101267.75;4044072;29;20045;-55
2022/04/15 04:20:03;;;;;;;25.00;19.75;;;;;;;13.39;62.75;101273.00;4037697;29;20045;-55
2022/04/15 04:22:06;;;;;;;25.98;20.27;;;;;;;13.35;63.08;101279.91;4043374;29;20594;-56
2022/04/15 04:24:10;;;;;;;23.42;20.13;;;;;;;13.36;62.80;101278.19;4041912;29;20455;-56
2022/04/15 04:26:13;;;;;;;22.45;19.33;;;;;;;13.34;62.74;101272.03;4036203;29;22050;-55
2022/04/15 04:28:16;;;;;;;18.58;16.58;;;;;;;13.36;63.09;101270.34;4034199;29;20500;-55
2022/04/15 04:30:19;;;;;;;25.63;20.40;;;;;;;13.41;62.61;101282.63;4036152;29;20610;-56
2022/04/15 04:32:22;;;;;;;22.92;18.95;;;;;;;13.43;62.39;101277.41;4038894;29;20042;-56
2022/04/15 04:34:24;;;;;;;30.63;21.23;;;;;;;13.40;62.72;101293.06;4045474;29;20380;-56
2022/04/15 04:36:27;;;;;;;21.73;18.80;;;;;;;13.37;62.81;101285.16;4045675;29;20108;-56
2022/04/15 04:38:31;;;;;;;25.05;20.30;;;;;;;13.38;62.94;101289.53;4025997;29;20390;-56
2022/04/15 04:40:36;;;;;;;20.75;16.95;;;;;;;13.41;62.67;101295.69;4041616;29;20134;-54
2022/04/15 04:42:39;;;;;;;23.48;20.35;;;;;;;13.41;62.78;101292.19;4042559;29;20081;-56
2022/04/15 04:44:43;;;;;;;23.90;21.30;;;;;;;13.40;62.62;101293.06;4033129;29;20499;-56
2022/04/15 04:46:46;;;;;;;22.33;19.92;;;;;;;13.41;62.75;101294.81;4037146;29;20403;-56
2022/04/15 04:48:49;;;;;;;22.15;19.85;;;;;;;13.42;62.79;101299.19;4044356;29;20120;-56
2022/04/15 04:50:53;;;;;;;24.27;19.85;;;;;;;13.45;62.36;101301.84;4041455;29;20498;-55
2022/04/15 04:52:56;;;;;;;23.63;19.20;;;;;;;13.48;62.21;101304.50;4046033;29;20446;-56
2022/04/15 04:54:58;;;;;;;24.58;20.52;;;;;;;13.49;62.32;101313.22;4035609;29;20602;-56
2022/04/15 04:57:03;;;;;;;22.30;19.05;;;;;;;13.54;62.30;101306.34;4037272;29;20509;-56
2022/04/15 04:59:06;;;;;;;21.02;18.75;;;;;;;13.48;62.37;101311.44;4033690;29;20519;-55
2022/04/15 05:01:09;;;;;;;24.00;20.25;;;;;;;13.55;62.06;101319.44;4052656;29;20474;-54
2022/04/15 05:03:12;;;;;;;21.50;18.70;;;;;;;13.53;62.21;101317.63;4024842;29;20519;-55
2022/04/15 05:05:15;;;;;;;21.67;18.75;;;;;;;13.54;62.05;101319.41;4042824;29;20458;-55
2022/04/15 05:07:18;;;;;;;21.75;18.50;;;;;;;13.52;62.51;101319.38;4044148;29;20505;-56
2022/04/15 05:09:21;;;;;;;23.38;20.55;;;;;;;13.61;61.75;101326.50;4043545;29;20559;-55
2022/04/15 05:11:24;;;;;;;23.30;20.67;;;;;;;13.65;61.57;101328.25;4036240;29;20063;-56
2022/04/15 05:13:28;;;;;;;20.75;18.42;;;;;;;13.67;61.66;101328.28;4037984;29;20043;-55
2022/04/15 05:15:32;;;;;;;22.83;19.98;;;;;;;13.69;61.23;101327.47;4037918;29;20105;-54
2022/04/15 05:17:34;;;;;;;24.52;20.10;;;;;;;13.56;61.78;101326.38;4036605;29;20058;-55
2022/04/15 05:19:37;;;;;;;23.33;19.25;;;;;;;13.62;61.89;101341.28;4042578;29;20060;-55
2022/04/15 05:21:40;;;;;;;23.67;19.67;;;;;;;13.59;61.55;101334.31;4046525;29;20131;-54
2022/04/15 05:23:45;;;;;;;22.25;19.45;;;;;;;13.58;61.45;101335.16;4041469;29;20136;-54
2022/04/15 05:25:48;;;;;;;23.48;20.15;;;;;;;13.74;61.17;101338.88;4038175;29;20402;-56
2022/04/15 05:27:52;;;;;;;25.83;21.50;;;;;;;13.57;61.49;101338.59;4033592;29;20440;-56
2022/04/15 05:29:56;;;;;;;23.27;20.58;;;;;;;13.56;61.48;101336.84;4053141;29;20435;-56
2022/04/15 05:31:59;;;;;;;25.73;20.90;;;;;;;13.58;61.16;101345.59;4033765;29;20500;-55
2022/04/15 05:34:02;;;;;;;23.70;21.15;;;;;;;13.50;61.61;101339.34;4026465;29;20040;-55
2022/04/15 05:36:06;;;;;;;24.02;20.15;;;;;;;13.49;62.11;101348.06;4031239;29;20033;-56
2022/04/15 05:38:08;;;;;;;21.55;18.77;;;;;;;13.45;62.41;101354.09;4033162;29;20177;-55
2022/04/15 05:40:12;;;;;;;26.45;21.90;;;;;;;13.47;62.32;101341.91;4038477;29;20048;-56
2022/04/15 05:42:15;;;;;;;22.23;19.80;;;;;;;13.54;61.71;101343.78;4032609;29;20132;-54
2022/04/15 05:44:17;;;;;;;23.38;20.63;;;;;;;13.45;62.13;101351.47;4032274;29;20400;-54
2022/04/15 05:46:22;;;;;;;24.92;20.58;;;;;;;13.43;62.27;101347.94;4048573;29;20036;-56
2022/04/15 05:48:25;;;;;;;23.73;21.17;;;;;;;13.51;61.71;101354.19;4041228;29;20049;-55
2022/04/15 05:50:27;;;;;;;24.52;20.73;;;;;;;13.49;61.76;101358.53;4052375;29;20047;-54
2022/04/15 05:52:30;;;;;;;25.77;20.88;;;;;;;13.51;61.96;101359.41;4039188;29;20485;-53
2022/04/15 05:54:33;;;;;;;24.80;22.20;;;;;;;13.51;62.08;101351.56;4031756;29;20128;-53
2022/04/15 05:56:36;;;;;;;25.38;21.45;;;;;;;13.58;61.82;101357.75;4037915;29;20601;-53
2022/04/15 05:58:40;;;;;;;23.25;20.75;;;;;;;13.52;61.97;101358.56;4041037;29;20053;-53
2022/04/15 06:00:43;;;;;;;26.85;21.70;;;;;;;13.51;61.74;101362.03;4029780;29;20045;-56
2022/04/15 06:02:47;;;;;;;23.10;20.70;;;;;;;13.61;61.64;101358.72;4042967;29;20059;-56
2022/04/15 06:04:56;;;;;;;26.45;21.45;;;;;;;13.55;61.73;101366.44;4036497;29;20041;-55
2022/04/15 06:06:59;;;;;;;23.67;20.67;;;;;;;13.55;62.20;101363.84;4043137;29;20041;-54
2022/04/15 06:09:02;;;;;;;24.38;20.08;;;;;;;13.67;62.04;101372.72;4040049;29;20308;-57
2022/04/15 06:11:04;;;;;;;23.75;20.65;;;;;;;13.74;61.42;101362.41;4033038;29;20471;-57
2022/04/15 06:13:13;;;;;;;23.77;20.95;;;;;;;13.80;61.47;101372.06;4032657;29;20128;-57
2022/04/15 06:15:16;;;;;;;27.88;21.00;;;;;;;13.83;61.27;101371.22;4036191;29;20452;-55
2022/04/15 06:17:22;;;;;;;23.67;21.02;;;;;;;13.86;60.81;101377.38;4031110;29;20407;-54
2022/04/15 06:19:26;;;;;;;26.63;21.30;;;;;;;13.87;61.22;101368.69;4045220;29;20410;-55
2022/04/15 06:21:37;;;;;;;25.55;22.70;;;;;;;13.95;60.62;101374.03;4037627;29;20174;-55
2022/04/15 06:23:40;;;;;;;25.10;21.50;;;;;;;14.00;60.95;101382.81;4042908;29;20079;-53
2022/04/15 06:25:44;;;;;;;24.52;21.63;;;;;;;13.95;60.83;101385.38;4023628;29;20460;-55
2022/04/15 06:27:47;;;;;;;29.48;22.70;;;;;;;14.04;60.63;101383.75;4034336;29;20041;-54
2022/04/15 06:29:49;;;;;;;28.50;23.15;;;;;;;14.03;60.99;101389.81;4038846;29;20490;-55
2022/04/15 06:31:52;;;;;;;26.00;22.52;;;;;;;14.07;60.46;101394.25;4035037;29;20410;-53
2022/04/15 06:33:56;;;;;;;27.42;22.33;;;;;;;14.13;60.88;101395.22;4035986;29;20064;-54
2022/04/15 06:36:01;;;;;;;31.80;22.98;;;;;;;14.17;60.29;101393.53;4028152;29;20049;-55
2022/04/15 06:38:04;;;;;;;27.55;23.55;;;;;;;14.27;59.89;101395.41;4036422;29;20037;-53
2022/04/15 06:40:09;;;;;;;26.30;23.15;;;;;;;14.08;60.44;101389.03;4051330;29;20064;-55
2022/04/15 06:42:13;;;;;;;26.30;21.88;;;;;;;14.13;60.03;101391.72;4024227;29;20054;-53
2022/04/15 06:44:16;;;;;;;26.45;22.88;;;;;;;14.18;60.88;101395.28;4037380;29;20136;-55
2022/04/15 06:46:19;;;;;;;25.88;22.08;;;;;;;14.16;60.53;101386.53;4032291;29;20049;-54
2022/04/15 06:48:22;;;;;;;29.67;21.98;;;;;;;14.22;60.17;101394.50;4029346;29;20070;-52
2022/04/15 06:50:25;;;;;;;27.55;23.20;;;;;;;14.40;60.29;101400.84;4050589;29;20033;-56
2022/04/15 06:52:30;;;;;;;27.23;23.55;;;;;;;14.29;60.87;101398.94;4028077;29;20041;-56
2022/04/15 06:54:33;;;;;;;28.35;21.05;;;;;;;14.33;60.24;101399.84;4029917;29;20131;-56
2022/04/15 06:56:35;;;;;;;28.05;24.08;;;;;;;14.48;59.95;101394.84;4027476;29;20124;-56
2022/04/15 06:58:39;;;;;;;29.40;23.83;;;;;;;14.45;60.26;101401.75;4042221;29;20289;-56
2022/04/15 07:00:41;;;;;;;25.90;22.30;;;;;;;14.45;60.11;101405.25;4031765;29;20112;-56
2022/04/15 07:02:44;;;;;;;30.60;23.08;;;;;;;14.70;58.92;101404.72;4040106;29;20049;-56
2022/04/15 07:04:47;;;;;;;28.38;23.52;;;;;;;14.68;59.31;101409.94;4033784;29;20124;-56
2022/04/15 07:06:50;;;;;;;24.42;22.02;;;;;;;14.66;59.13;101409.94;4033520;29;20047;-56
2022/04/15 07:08:54;;;;;;;26.33;22.98;;;;;;;14.84;58.77;101416.25;4029578;29;20049;-56
2022/04/15 07:10:57;;;;;;;26.70;23.33;;;;;;;14.84;58.75;101421.47;4032495;29;20048;-56
2022/04/15 07:13:00;;;;;;;29.45;23.05;;;;;;;14.80;58.80;101414.44;4030752;29;20465;-56
2022/04/15 07:15:04;;;;;;;23.42;20.70;;;;;;;14.77;59.05;101414.41;4023726;29;20037;-57
2022/04/15 07:17:06;;;;;;;28.50;24.17;;;;;;;14.89;60.01;101419.78;4019960;29;20060;-56
2022/04/15 07:19:10;;;;;;;33.08;25.00;;;;;;;15.03;58.21;101419.09;4027711;29;20558;-57
2022/04/15 07:21:12;;;;;;;27.02;23.02;;;;;;;14.96;58.56;101415.50;4029905;29;20037;-56
2022/04/15 07:23:15;;;;;;;28.58;23.25;;;;;;;15.01;57.94;101419.94;4029737;29;20442;-57
2022/04/15 07:25:19;;;;;;;27.95;22.65;;;;;;;14.98;59.53;101419.00;4023373;29;20049;-59
2022/04/15 07:27:22;;;;;;;26.95;22.38;;;;;;;15.10;57.88;101411.31;4026406;29;20041;-58
2022/04/15 07:29:26;;;;;;;25.10;22.40;;;;;;;14.95;58.55;101409.41;4027882;29;20078;-58
2022/04/15 07:31:29;;;;;;;26.65;23.77;;;;;;;15.00;58.97;101418.19;4025660;29;20045;-58
2022/04/15 07:33:32;;;;;;;27.30;22.27;;;;;;;15.14;58.70;101417.44;4027034;29;20096;-59
2022/04/15 07:35:35;;;;;;;26.55;23.63;;;;;;;15.27;57.87;101414.09;4028321;29;20163;-64
2022/04/15 07:37:38;;;;;;;27.75;24.75;;;;;;;15.32;58.35;101422.03;4009462;29;20045;-76
2022/04/15 07:39:41;;;;;;;26.85;24.10;;;;;;;15.24;58.73;101424.53;4025058;29;20061;-68
2022/04/15 07:41:45;;;;;;;31.67;24.58;;;;;;;15.34;57.83;101422.91;4024550;29;20488;-68
2022/04/15 07:43:49;;;;;;;24.80;21.92;;;;;;;15.17;58.66;101423.63;4027442;29;20044;-59
2022/04/15 07:45:51;;;;;;;30.27;23.95;;;;;;;15.31;59.33;101418.50;4028485;29;20048;-69
2022/04/15 07:47:55;;;;;;;28.10;23.90;;;;;;;15.40;58.36;101424.72;4026293;29;20037;-66
2022/04/15 07:49:58;;;;;;;26.33;23.60;;;;;;;15.41;58.18;101426.47;4031278;29;20058;-72
2022/04/15 07:52:01;;;;;;;27.45;24.10;;;;;;;15.53;58.17;101416.09;4029849;29;20045;-65
2022/04/15 07:54:05;;;;;;;27.10;24.20;;;;;;;15.59;57.50;101417.91;4038741;29;20045;-64
2022/04/15 07:56:08;;;;;;;28.60;24.58;;;;;;;15.63;57.87;101427.53;4025451;29;20085;-66
2022/04/15 07:58:13;;;;;;;26.88;22.98;;;;;;;15.61;57.16;101424.91;4025903;29;20048;-60
2022/04/15 08:00:16;;;;;;;23.85;20.75;;;;;;;15.62;57.48;101426.66;4027055;29;20043;-60
2022/04/15 08:02:19;;;;;;;27.23;23.02;;;;;;;15.65;58.07;101431.94;4038884;29;20055;-59
2022/04/15 08:04:22;;;;;;;29.40;23.00;;;;;;;15.75;57.83;101426.78;4025856;29;20053;-60
2022/04/15 08:06:28;;;;;;;24.20;21.60;;;;;;;15.91;56.66;101427.81;4024647;29;20049;-61
2022/04/15 08:08:31;;;;;;;29.60;23.75;;;;;;;15.94;56.67;101430.44;4039457;29;20534;-60
2022/04/15 08:10:34;;;;;;;31.42;22.08;;;;;;;16.01;56.61;101424.38;4009293;29;20119;-62
2022/04/15 08:12:37;;;;;;;28.10;21.23;;;;;;;15.88;56.45;101431.28;4012440;29;20046;-60
2022/04/15 08:14:42;;;;;;;24.48;21.50;;;;;;;15.84;57.15;101426.88;4024487;29;20041;-60
2022/04/15 08:16:45;;;;;;;23.10;19.90;;;;;;;15.88;57.36;101431.28;4026427;29;20037;-61
2022/04/15 08:18:49;;;;;;;23.83;21.23;;;;;;;15.97;56.49;101433.97;4026062;29;20136;-59
2022/04/15 08:20:53;;;;;;;;;;;;;;;15.93;56.70;101437.44;4023328;29;20033;-57
2022/04/15 08:22:56;;;;;;;24.20;20.45;;;;;;;16.14;56.87;101434.09;4019747;29;20022;-55
2022/04/15 08:25:00;;;;;;;26.52;20.67;;;;;;;16.38;55.41;101433.38;4033644;29;20186;-57
2022/04/15 08:27:04;;;;;;;24.00;21.48;;;;;;;16.44;54.92;101436.91;4023967;29;20064;-58
2022/04/15 08:29:07;;;;;;;24.30;20.13;;;;;;;16.40;55.48;101430.78;4026571;29;20045;-58
2022/04/15 08:31:12;;;;;;;20.25;17.00;;;;;;;16.51;53.60;101436.06;4031543;29;20049;-58
2022/04/15 08:33:15;;;;;;;;;;;;;;;16.34;54.48;101436.84;4018666;29;20404;-58
2022/04/15 08:35:18;;;;;;;25.00;18.58;;;;;;;16.31;55.49;101438.56;4022864;29;20019;-57
2022/04/15 08:37:21;;;;;;;19.73;16.42;;;;;;;16.43;54.15;101443.91;4028217;29;20127;-57
2022/04/15 08:39:24;;;;;;;22.33;18.13;;;;;;;16.54;53.87;101451.81;4025061;29;20183;-57
2022/04/15 08:41:36;;;;;;;22.05;18.40;;;;;;;16.54;53.40;101449.19;4023297;29;20829;-57
2022/04/15 08:43:40;;;;;;;21.33;18.95;;;;;;;16.54;53.69;101452.72;4026975;29;20041;-57
2022/04/15 08:45:47;;;;;;;17.10;14.30;;;;;;;16.42;54.53;101444.75;4022591;29;20041;-58
2022/04/15 08:47:57;;;;;;;21.65;15.20;;;;;;;16.71;52.52;101444.91;4040769;29;20076;-57
2022/04/15 08:50:00;;;;;;;16.25;12.98;;;;;;;16.81;51.49;101447.59;4022304;29;20503;-57
2022/04/15 08:52:04;;;;;;;17.42;14.10;;;;;;;16.92;51.34;101443.28;4025024;29;20037;-57
2022/04/15 08:54:08;;;;;;;17.50;13.68;;;;;;;16.92;51.99;101448.53;4044975;29;20049;-57
2022/04/15 08:56:10;;;;;;;16.42;11.80;;;;;;;16.99;49.91;101450.31;4022383;29;20044;-56
2022/04/15 08:58:13;;;;;;;20.02;13.35;;;;;;;16.87;50.72;101447.63;4038822;29;20060;-57
2022/04/15 09:00:17;;;;;;;15.85;12.70;;;;;;;16.85;50.92;101446.72;4022825;29;20551;-57
2022/04/15 09:02:32;;;;;;;20.17;13.37;;;;;;;16.99;50.34;101450.31;4017981;29;20482;-55
2022/04/15 09:04:36;;;;;;;17.30;13.50;;;;;;;17.02;50.51;101445.06;4024016;29;20313;-57
2022/04/15 09:06:43;;;;;;;17.02;13.77;;;;;;;17.24;49.91;101443.41;4021965;29;20049;-57
2022/04/15 09:09:01;;;;;;;17.98;14.27;;;;;;;17.26;50.63;101440.78;4022355;29;20097;-58
2022/04/15 09:11:04;;;;;;;18.15;14.38;;;;;;;17.27;50.85;101448.66;4022625;29;20172;-57
2022/04/15 09:13:19;;;;;;;16.15;12.48;;;;;;;17.27;51.36;101442.50;4023706;29;20046;-58
2022/04/15 09:15:22;;;;;;;13.70;11.73;;;;;;;17.45;51.74;101445.19;4011420;29;20069;-58
2022/04/15 09:17:24;;;;;;;17.70;14.38;;;;;;;17.68;50.68;101453.97;4022333;29;20053;-58
2022/04/15 09:19:27;;;;;;;20.98;15.23;;;;;;;17.83;49.89;101439.94;4024423;29;20049;-58
2022/04/15 09:21:32;;;;;;;18.05;14.55;;;;;;;17.82;49.18;101444.34;4024376;29;20052;-58
2022/04/15 09:23:36;;;;;;;14.75;12.18;;;;;;;17.77;49.67;101438.19;4026451;29;20047;-57
2022/04/15 09:25:40;;;;;;;16.50;12.13;;;;;;;17.83;49.14;101447.84;4027537;29;20048;-57